createdAt,value
2022-12-03T00:04:32.474Z,53.17
2022-12-03T00:09:35.231Z,49.67
2022-12-03T00:14:44.448Z,49.40
2022-12-03T00:19:47.773Z,51.97
2022-12-03T00:24:50.708Z,52.57
2022-12-03T00:29:54.890Z,53.67
2022-12-03T00:34:57.710Z,50.37
2022-12-03T00:40:00.482Z,48.10
2022-12-03T00:45:05.273Z,49.80
2022-12-03T00:50:09.151Z,49.60
2022-12-03T00:55:12.153Z,52.57
2022-12-03T01:00:17.060Z,53.50
2022-12-03T01:05:19.992Z,50.53
2022-12-03T01:10:22.897Z,49.20
2022-12-03T01:15:27.046Z,49.97
2022-12-03T01:20:29.791Z,48.70
2022-12-03T01:25:32.593Z,48.07
2022-12-03T01:30:56.991Z,51.00
2022-12-03T01:35:59.797Z,46.07
2022-12-03T01:41:05.886Z,51.17
2022-12-03T01:46:14.517Z,50.73
2022-12-03T01:51:17.471Z,51.00
2022-12-03T01:56:20.372Z,44.07
2022-12-03T02:01:24.516Z,48.17
2022-12-03T02:06:30.140Z,48.50
2022-12-03T02:11:36.418Z,49.80
2022-12-03T02:16:41.928Z,45.90
2022-12-03T02:21:53.669Z,50.93
2022-12-03T02:26:58.046Z,44.67
2022-12-03T02:32:02.085Z,48.20
2022-12-03T02:37:07.238Z,49.10
2022-12-03T02:42:32.428Z,42.80
2022-12-03T02:47:38.804Z,44.20
2022-12-03T02:52:43.718Z,47.17
2022-12-03T02:57:51.480Z,47.97
2022-12-03T03:02:54.700Z,50.70
2022-12-03T03:08:01.217Z,50.67
2022-12-03T03:13:11.143Z,49.20
2022-12-03T03:18:15.557Z,49.37
2022-12-03T03:23:20.276Z,47.83
2022-12-03T03:28:25.619Z,49.07
2022-12-03T03:33:29.371Z,48.20
2022-12-03T03:38:33.378Z,50.83
2022-12-03T03:43:43.226Z,49.00
2022-12-03T03:48:46.496Z,46.90
2022-12-03T03:53:50.908Z,49.77
2022-12-03T03:58:56.648Z,46.23
2022-12-03T04:04:00.567Z,44.60
2022-12-03T04:09:03.452Z,42.60
2022-12-03T04:14:07.518Z,49.23
2022-12-03T04:19:10.292Z,42.27
2022-12-03T04:24:13.092Z,44.43
2022-12-03T04:29:17.502Z,43.93
2022-12-03T04:34:37.813Z,44.83
2022-12-03T04:39:40.601Z,44.33
2022-12-03T04:44:44.746Z,42.50
2022-12-03T04:49:51.616Z,43.03
2022-12-03T04:54:54.716Z,46.00
2022-12-03T04:59:59.438Z,46.97
2022-12-03T05:05:02.287Z,44.87
2022-12-03T05:10:06.054Z,42.10
2022-12-03T05:15:10.894Z,43.43
2022-12-03T05:20:49.636Z,46.30
2022-12-03T05:25:55.827Z,43.57
2022-12-03T05:30:59.979Z,41.87
2022-12-03T05:36:02.881Z,41.50
2022-12-03T05:41:26.773Z,40.07
2022-12-03T05:46:31.345Z,41.10
2022-12-03T05:51:34.142Z,43.77
2022-12-03T05:56:36.906Z,45.53
2022-12-03T06:01:41.228Z,40.63
2022-12-03T06:06:44.199Z,44.77
2022-12-03T06:11:47.440Z,42.30
2022-12-03T06:16:51.921Z,42.17
2022-12-03T06:21:55.612Z,44.20
2022-12-03T06:26:58.614Z,45.27
2022-12-03T06:32:03.079Z,44.77
2022-12-03T06:37:06.664Z,42.70
2022-12-03T06:42:09.787Z,41.50
2022-12-03T06:47:13.947Z,41.20
2022-12-03T06:52:16.797Z,39.07
2022-12-03T06:57:19.609Z,44.10
2022-12-03T07:02:24.077Z,40.80
2022-12-03T07:07:27.505Z,45.43
2022-12-03T07:12:30.238Z,39.97
2022-12-03T07:17:34.402Z,41.80
2022-12-03T07:22:37.145Z,40.33
2022-12-03T07:27:39.941Z,44.87
2022-12-03T07:32:44.083Z,43.87
2022-12-03T07:37:46.838Z,42.43
2022-12-03T07:42:49.566Z,39.97
2022-12-03T07:47:53.716Z,39.73
2022-12-03T07:52:57.157Z,42.67
2022-12-03T07:58:01.107Z,36.70
2022-12-03T08:03:06.498Z,39.63
2022-12-03T08:08:10.535Z,34.67
2022-12-03T08:13:16.950Z,41.37
2022-12-03T08:18:23.747Z,39.87
2022-12-03T08:23:28.567Z,36.40
2022-12-03T08:28:34.563Z,39.73
2022-12-03T08:33:41.925Z,42.17
2022-12-03T08:38:51.597Z,40.00
2022-12-03T08:43:55.558Z,47.27
2022-12-03T08:49:00.931Z,42.60
2022-12-03T08:54:14.053Z,46.07
2022-12-03T08:59:28.549Z,44.03
2022-12-03T09:04:38.749Z,47.77
2022-12-03T09:09:41.612Z,46.23
2022-12-03T09:14:44.336Z,50.23
2022-12-03T09:19:48.398Z,51.67
2022-12-03T09:24:51.563Z,44.07
2022-12-03T09:29:55.486Z,50.57
2022-12-03T09:35:00.878Z,43.87
2022-12-03T09:40:04.523Z,44.37
2022-12-03T09:45:12.607Z,42.73
2022-12-03T09:50:21.855Z,44.83
2022-12-03T09:55:27.296Z,45.80
2022-12-03T10:00:31.970Z,47.93
2022-12-03T10:05:36.908Z,50.00
2022-12-03T10:10:41.762Z,48.80
2022-12-03T10:15:44.772Z,46.27
2022-12-03T10:20:50.221Z,44.03
2022-12-03T10:25:55.575Z,47.07
2022-12-03T10:30:59.343Z,51.97
2022-12-03T10:36:27.595Z,50.70
2022-12-03T10:41:30.731Z,52.23
2022-12-03T10:46:33.627Z,51.70
2022-12-03T10:51:39.314Z,47.77
2022-12-03T10:56:42.155Z,52.73
2022-12-03T11:01:50.649Z,54.83
2022-12-03T11:06:55.345Z,51.83
2022-12-03T11:12:05.001Z,52.43
2022-12-03T11:17:12.913Z,53.53
2022-12-03T11:22:45.794Z,56.17
2022-12-03T11:28:30.625Z,54.10
2022-12-03T11:33:35.679Z,53.40
2022-12-03T11:38:57.474Z,49.77
2022-12-03T11:44:33.215Z,49.43
2022-12-03T11:49:39.643Z,46.07
2022-12-03T11:54:44.632Z,39.83
2022-12-03T12:00:09.125Z,44.77
2022-12-03T12:05:26.276Z,43.70
2022-12-03T12:10:46.397Z,48.40
2022-12-03T12:15:52.259Z,46.57
2022-12-03T12:20:58.663Z,45.10
2022-12-03T12:26:08.161Z,47.07
2022-12-03T12:31:12.260Z,47.40
2022-12-03T12:36:15.819Z,51.03
2022-12-03T12:41:20.069Z,46.20
2022-12-03T12:46:47.335Z,42.30
2022-12-03T12:51:50.328Z,43.70
2022-12-03T12:56:55.617Z,44.43
2022-12-03T13:02:18.607Z,41.93
2022-12-03T13:07:22.259Z,43.33
2022-12-03T13:12:26.870Z,36.43
2022-12-03T13:17:32.908Z,35.90
2022-12-03T13:22:35.791Z,38.37
2022-12-03T13:27:39.872Z,35.17
2022-12-03T13:32:43.776Z,34.33
2022-12-03T13:37:46.555Z,32.83
2022-12-03T13:42:50.752Z,29.83
2022-12-03T13:47:57.005Z,26.30
2022-12-03T13:53:01.454Z,25.40
2022-12-03T13:58:05.951Z,23.60
2022-12-03T14:03:08.894Z,25.90
2022-12-03T14:08:12.142Z,23.73
2022-12-03T14:13:16.254Z,26.63
2022-12-03T14:18:19.890Z,25.50
2022-12-03T14:23:22.809Z,25.50
2022-12-03T14:28:27.323Z,22.60
2022-12-03T14:33:30.127Z,26.73
2022-12-03T14:38:32.957Z,30.33
2022-12-03T14:43:37.045Z,24.77
2022-12-03T14:48:39.775Z,27.43
2022-12-03T14:53:42.482Z,38.00
2022-12-03T14:58:46.679Z,43.07
2022-12-03T15:03:49.492Z,47.03
2022-12-03T15:08:52.255Z,45.10
2022-12-03T15:13:56.340Z,49.33
2022-12-03T15:18:59.072Z,57.40
2022-12-03T15:24:02.079Z,50.23
2022-12-03T15:29:21.524Z,55.23
2022-12-03T15:34:24.307Z,53.10
2022-12-03T15:39:27.042Z,56.27
2022-12-03T15:44:31.112Z,61.17
2022-12-03T15:49:33.878Z,56.77
2022-12-03T15:54:36.611Z,67.57
2022-12-03T15:59:40.751Z,64.50
2022-12-03T16:04:43.513Z,67.43
2022-12-03T16:09:46.287Z,61.43
2022-12-03T16:14:50.791Z,58.80
2022-12-03T16:19:53.799Z,62.23
2022-12-03T16:24:56.757Z,56.73
2022-12-03T16:30:01.562Z,57.77
2022-12-03T16:35:05.270Z,55.93
2022-12-03T16:40:34.059Z,54.90
2022-12-03T16:46:20.841Z,61.33
2022-12-03T16:51:23.847Z,61.80
2022-12-03T16:56:26.639Z,64.23
2022-12-03T17:01:30.860Z,54.67
2022-12-03T17:06:33.752Z,67.77
2022-12-03T17:11:36.541Z,55.83
2022-12-03T17:16:40.765Z,64.77
2022-12-03T17:21:43.557Z,62.23
2022-12-03T17:26:46.477Z,65.20
2022-12-03T17:31:50.601Z,61.80
2022-12-03T17:36:53.390Z,57.27
2022-12-03T17:41:56.215Z,56.43
2022-12-03T17:47:00.341Z,56.80
2022-12-03T17:52:03.253Z,50.83
2022-12-03T17:57:06.030Z,59.97
2022-12-03T18:02:10.259Z,66.17
2022-12-03T18:07:13.179Z,51.67
2022-12-03T18:12:15.918Z,55.20
2022-12-03T18:17:20.037Z,62.93
2022-12-03T18:22:22.906Z,68.47
2022-12-03T18:27:26.016Z,53.73
2022-12-03T18:32:30.438Z,61.93
2022-12-03T18:37:36.030Z,60.00
2022-12-03T18:42:38.847Z,70.57
2022-12-03T18:47:43.162Z,75.33
2022-12-03T18:52:46.037Z,68.23
2022-12-03T18:57:50.197Z,77.07
2022-12-03T19:03:03.199Z,66.30
2022-12-03T19:08:13.991Z,62.77
2022-12-03T19:13:16.963Z,62.50
2022-12-03T19:18:23.020Z,60.43
2022-12-03T19:23:25.785Z,57.90
2022-12-03T19:28:29.404Z,54.40
2022-12-03T19:33:33.909Z,53.87
2022-12-03T19:38:36.692Z,50.33
2022-12-03T19:43:39.667Z,52.50
2022-12-03T19:48:43.791Z,52.37
2022-12-03T19:53:46.745Z,50.73
2022-12-03T19:58:49.533Z,61.70
2022-12-03T20:03:56.399Z,54.87
2022-12-03T20:09:00.489Z,82.40
2022-12-03T20:14:05.422Z,81.30
2022-12-03T20:19:16.460Z,55.73
2022-12-03T20:24:22.097Z,59.20
2022-12-03T20:29:26.217Z,63.80
2022-12-03T20:34:30.537Z,55.47
2022-12-03T20:39:33.461Z,53.17
2022-12-03T20:44:38.034Z,58.27
2022-12-03T20:49:55.671Z,65.43
2022-12-03T20:54:58.863Z,67.33
2022-12-03T21:00:01.750Z,69.70
2022-12-03T21:05:06.733Z,71.93
2022-12-03T21:10:28.451Z,78.93
2022-12-03T21:15:42.167Z,70.70
2022-12-03T21:20:51.459Z,77.40
2022-12-03T21:25:54.858Z,82.40
2022-12-03T21:31:01.693Z,75.93
2022-12-03T21:36:07.565Z,77.47
2022-12-03T21:41:10.952Z,70.03
2022-12-03T21:47:10.048Z,77.47
2022-12-03T21:51:43.139Z,75.33
2022-12-03T21:56:47.194Z,78.07
2022-12-03T22:01:51.772Z,73.50
2022-12-03T22:06:56.114Z,71.57
2022-12-03T22:12:00.743Z,75.87
2022-12-03T22:17:05.858Z,69.93
2022-12-03T22:22:13.092Z,70.77
2022-12-03T22:27:16.372Z,70.93
2022-12-03T22:32:19.192Z,69.37
2022-12-03T22:37:23.464Z,73.27
2022-12-03T22:42:26.254Z,73.17
2022-12-03T22:47:29.012Z,75.53
2022-12-03T22:52:33.132Z,74.87
2022-12-03T22:57:36.023Z,79.53
2022-12-03T23:02:38.930Z,75.37
2022-12-03T23:07:43.069Z,70.17
2022-12-03T23:12:45.967Z,75.57
2022-12-03T23:17:48.727Z,70.57
2022-12-03T23:22:54.369Z,76.03
2022-12-03T23:27:57.238Z,77.80
2022-12-03T23:33:00.022Z,76.40
2022-12-03T23:38:04.144Z,67.80
2022-12-03T23:43:06.913Z,72.70
2022-12-03T23:48:09.697Z,70.30
2022-12-03T23:53:13.859Z,75.83
2022-12-03T23:58:16.622Z,67.60
